createdAt,value
2019-05-09T00:00:36.626Z,96.62
2019-05-09T00:03:06.659Z,96.75
2019-05-09T00:05:36.590Z,96.69
2019-05-09T00:08:06.453Z,96.76
2019-05-09T00:10:41.592Z,96.62
2019-05-09T00:13:08.358Z,96.15
2019-05-09T00:15:38.287Z,96.40
2019-05-09T00:18:08.281Z,96.80
2019-05-09T00:20:55.704Z,97.37
2019-05-09T00:23:26.004Z,97.58
2019-05-09T00:25:55.841Z,97.33
2019-05-09T00:28:27.706Z,96.95
2019-05-09T00:31:04.705Z,96.53
2019-05-09T00:33:34.979Z,96.17
2019-05-09T00:36:04.856Z,95.74
2019-05-09T00:38:38.974Z,95.40
2019-05-09T00:41:08.920Z,95.24
2019-05-09T00:43:40.171Z,95.09
2019-05-09T00:46:20.154Z,95.03
2019-05-09T00:49:05.639Z,94.89
2019-05-09T00:51:36.111Z,94.65
2019-05-09T00:54:06.710Z,94.80
2019-05-09T00:56:36.625Z,94.69
2019-05-09T00:59:06.548Z,94.48
2019-05-09T01:01:36.421Z,94.43
2019-05-09T01:04:06.602Z,93.97
2019-05-09T01:06:36.534Z,93.80
2019-05-09T01:09:07.756Z,93.81
2019-05-09T01:11:37.689Z,93.58
2019-05-09T01:14:07.567Z,93.61
2019-05-09T01:16:37.426Z,93.11
2019-05-09T01:19:07.365Z,92.58
2019-05-09T01:21:37.676Z,92.26
2019-05-09T01:24:07.683Z,92.52
2019-05-09T01:26:37.530Z,92.50
2019-05-09T01:29:07.430Z,92.25
2019-05-09T01:31:38.266Z,92.33
2019-05-09T01:34:18.714Z,92.39
2019-05-09T01:37:04.441Z,92.54
2019-05-09T01:39:35.719Z,92.79
2019-05-09T01:42:06.344Z,93.60
2019-05-09T01:44:36.324Z,94.12
2019-05-09T01:47:06.717Z,94.20
2019-05-09T01:49:36.599Z,94.47
2019-05-09T01:52:06.563Z,94.58
2019-05-09T01:54:38.335Z,94.74
2019-05-09T01:57:08.248Z,94.76
2019-05-09T01:59:38.139Z,94.74
2019-05-09T02:02:09.111Z,94.39
2019-05-09T02:04:39.091Z,93.98
2019-05-09T02:07:09.010Z,93.99
2019-05-09T02:09:39.469Z,93.54
2019-05-09T02:12:09.348Z,93.01
2019-05-09T02:14:51.682Z,92.38
2019-05-09T02:17:57.858Z,92.15
2019-05-09T02:20:18.017Z,91.98
2019-05-09T02:22:47.931Z,91.88
2019-05-09T02:25:17.957Z,91.32
2019-05-09T02:27:47.832Z,91.66
2019-05-09T02:30:18.221Z,91.88
2019-05-09T02:32:48.137Z,92.09
2019-05-09T02:35:18.545Z,91.93
2019-05-09T02:37:49.835Z,92.02
2019-05-09T02:40:20.068Z,92.02
2019-05-09T02:42:50.160Z,92.13
2019-05-09T02:45:23.088Z,92.00
2019-05-09T02:47:53.124Z,91.89
2019-05-09T02:50:23.114Z,92.07
2019-05-09T02:52:52.962Z,91.86
2019-05-09T02:55:22.838Z,91.57
2019-05-09T02:57:54.730Z,91.44
2019-05-09T03:00:39.509Z,91.24
2019-05-09T03:03:12.827Z,91.00
2019-05-09T03:05:43.412Z,90.66
2019-05-09T03:08:13.315Z,90.51
2019-05-09T03:10:43.512Z,90.29
2019-05-09T03:13:14.072Z,90.67
2019-05-09T03:15:45.147Z,91.04
2019-05-09T03:18:17.717Z,90.99
2019-05-09T03:20:59.119Z,91.03
2019-05-09T03:23:28.992Z,91.24
2019-05-09T03:25:59.243Z,91.20
2019-05-09T03:29:03.317Z,91.02
2019-05-09T03:31:33.921Z,91.13
2019-05-09T03:34:03.788Z,91.13
2019-05-09T03:36:33.646Z,91.17
2019-05-09T03:39:03.574Z,90.83
2019-05-09T03:41:33.487Z,90.50
2019-05-09T03:44:03.749Z,90.24
2019-05-09T03:46:41.466Z,90.31
2019-05-09T03:49:11.389Z,90.53
2019-05-09T03:51:41.232Z,90.26
2019-05-09T03:54:11.103Z,90.33
2019-05-09T03:56:44.792Z,90.62
2019-05-09T03:59:14.960Z,90.65
2019-05-09T04:01:46.844Z,90.67
2019-05-09T04:04:17.354Z,90.26
2019-05-09T04:06:48.120Z,90.22
2019-05-09T04:09:18.363Z,90.06
2019-05-09T04:11:48.650Z,89.80
2019-05-09T04:14:23.005Z,89.38
2019-05-09T04:16:53.301Z,89.59
2019-05-09T04:19:23.198Z,89.25
2019-05-09T04:21:53.043Z,89.17
2019-05-09T04:24:24.084Z,88.88
2019-05-09T04:27:00.357Z,88.92
2019-05-09T04:29:30.293Z,89.03
2019-05-09T04:32:00.627Z,88.57
2019-05-09T04:34:31.139Z,88.30
2019-05-09T04:37:01.446Z,88.25
2019-05-09T04:39:31.417Z,88.05
2019-05-09T04:42:05.330Z,87.74
2019-05-09T04:44:41.213Z,87.04
2019-05-09T04:47:11.179Z,86.14
2019-05-09T04:49:45.161Z,86.07
2019-05-09T04:52:12.755Z,85.36
2019-05-09T04:54:42.805Z,84.68
2019-05-09T04:57:12.736Z,83.80
2019-05-09T04:59:42.676Z,82.61
2019-05-09T05:02:22.159Z,82.70
2019-05-09T05:04:52.116Z,82.67
2019-05-09T05:07:22.050Z,82.84
2019-05-09T05:09:52.101Z,83.67
2019-05-09T05:12:21.926Z,84.16
2019-05-09T05:14:51.763Z,84.58
2019-05-09T05:17:21.959Z,84.80
2019-05-09T05:19:52.338Z,84.73
2019-05-09T05:22:28.454Z,85.06
2019-05-09T05:25:01.151Z,84.84
2019-05-09T05:27:31.111Z,84.59
2019-05-09T05:30:00.985Z,84.79
2019-05-09T05:32:42.625Z,85.00
2019-05-09T05:35:30.736Z,85.50
2019-05-09T05:38:00.589Z,85.39
2019-05-09T05:40:33.717Z,85.58
2019-05-09T05:43:02.079Z,85.66
2019-05-09T05:45:37.511Z,85.59
2019-05-09T05:48:12.789Z,85.75
2019-05-09T05:50:42.652Z,85.26
2019-05-09T05:53:12.766Z,85.00
2019-05-09T05:55:42.918Z,85.06
2019-05-09T05:58:12.796Z,84.67
2019-05-09T06:00:42.943Z,84.88
2019-05-09T06:03:12.791Z,84.62
2019-05-09T06:05:42.651Z,84.29
2019-05-09T06:08:13.331Z,83.72
2019-05-09T06:10:43.184Z,83.43
2019-05-09T06:13:13.042Z,82.80
2019-05-09T06:15:42.883Z,82.49
2019-05-09T06:18:12.843Z,82.42
2019-05-09T06:20:45.590Z,82.18
2019-05-09T06:23:14.922Z,80.98
2019-05-09T06:25:44.942Z,80.82
2019-05-09T06:28:14.956Z,80.92
2019-05-09T06:30:44.817Z,80.13
2019-05-09T06:33:14.707Z,76.69
2019-05-09T06:35:44.659Z,76.64
2019-05-09T06:38:14.511Z,76.14
2019-05-09T06:40:44.370Z,75.70
2019-05-09T06:43:22.298Z,74.51
2019-05-09T06:46:20.037Z,74.38
2019-05-09T06:48:49.971Z,74.19
2019-05-09T06:51:21.341Z,74.77
2019-05-09T06:53:51.321Z,75.00
2019-05-09T06:56:21.258Z,74.86
2019-05-09T06:58:51.470Z,74.90
2019-05-09T07:01:48.279Z,73.43
2019-05-09T07:04:40.447Z,72.91
2019-05-09T07:07:17.967Z,71.25
2019-05-09T07:09:51.896Z,71.10
2019-05-09T07:12:22.026Z,70.60
2019-05-09T07:14:52.238Z,70.45
2019-05-09T07:17:22.132Z,69.01
2019-05-09T07:19:51.989Z,69.03
2019-05-09T07:22:38.991Z,67.24
2019-05-09T07:25:18.461Z,66.52
2019-05-09T07:27:48.486Z,65.99
2019-05-09T07:30:29.807Z,63.80
2019-05-09T07:33:08.491Z,60.83
2019-05-09T07:35:38.609Z,57.57
2019-05-09T07:38:08.719Z,57.16
2019-05-09T07:40:38.819Z,55.48
2019-05-09T07:43:08.699Z,56.34
2019-05-09T07:45:40.278Z,56.17
2019-05-09T07:48:11.447Z,55.65
2019-05-09T07:50:41.227Z,53.85
2019-05-09T07:53:11.702Z,53.35
2019-05-09T07:55:42.208Z,48.70
2019-05-09T07:58:14.305Z,46.33
2019-05-09T08:00:43.999Z,47.83
2019-05-09T08:03:13.936Z,47.57
2019-05-09T08:05:43.827Z,49.06
2019-05-09T08:08:18.660Z,50.46
2019-05-09T08:10:48.717Z,50.22
2019-05-09T08:13:21.527Z,50.84
2019-05-09T08:15:50.494Z,51.06
2019-05-09T08:18:20.873Z,49.95
2019-05-09T08:20:50.686Z,48.75
2019-05-09T08:23:20.564Z,47.91
2019-05-09T08:25:50.413Z,48.97
2019-05-09T08:28:20.320Z,49.21
2019-05-09T08:30:50.132Z,48.07
2019-05-09T08:33:20.278Z,47.42
2019-05-09T08:35:52.606Z,48.97
2019-05-09T08:38:21.792Z,49.87
2019-05-09T08:41:09.003Z,50.89
2019-05-09T08:43:40.977Z,52.34
2019-05-09T08:46:12.711Z,51.83
2019-05-09T08:48:42.725Z,50.03
2019-05-09T08:51:35.315Z,49.11
2019-05-09T08:53:57.899Z,49.14
2019-05-09T08:56:28.402Z,48.79
2019-05-09T08:59:01.940Z,48.22
2019-05-09T09:01:50.114Z,48.91
2019-05-09T09:04:01.956Z,48.45
2019-05-09T09:06:31.826Z,47.13
2019-05-09T09:09:01.711Z,45.32
2019-05-09T09:11:31.635Z,44.67
2019-05-09T09:14:01.492Z,40.83
2019-05-09T09:16:31.342Z,41.59
2019-05-09T09:19:01.238Z,38.68
2019-05-09T09:21:31.077Z,36.73
2019-05-09T09:24:00.923Z,33.23
2019-05-09T09:26:30.771Z,31.29
2019-05-09T09:29:00.617Z,28.46
2019-05-09T09:31:30.453Z,29.10
2019-05-09T09:34:01.239Z,35.57
2019-05-09T09:36:31.065Z,39.32
2019-05-09T09:39:02.981Z,43.99
2019-05-09T09:41:32.550Z,42.55
2019-05-09T09:44:02.405Z,34.19
2019-05-09T09:46:32.268Z,29.54
2019-05-09T09:49:02.155Z,32.48
2019-05-09T09:51:32.062Z,32.95
2019-05-09T09:54:01.972Z,30.70
2019-05-09T09:56:32.501Z,31.59
2019-05-09T09:59:18.862Z,29.12
2019-05-09T10:01:49.159Z,28.44
2019-05-09T10:04:23.964Z,31.92
2019-05-09T10:06:53.090Z,29.17
2019-05-09T10:09:23.287Z,29.32
2019-05-09T10:11:56.858Z,27.90
2019-05-09T10:17:10.100Z,29.99
2019-05-09T10:19:43.422Z,28.63
2019-05-09T10:22:23.430Z,29.64
2019-05-09T10:24:48.600Z,31.31
2019-05-09T10:27:18.701Z,32.55
2019-05-09T10:29:48.771Z,36.26
2019-05-09T10:32:18.709Z,37.97
2019-05-09T10:34:49.115Z,37.77
2019-05-09T10:37:19.119Z,38.22
2019-05-09T10:39:49.277Z,39.24
2019-05-09T10:42:32.944Z,38.69
2019-05-09T10:45:28.026Z,37.28
2019-05-09T10:47:57.855Z,37.10
2019-05-09T10:50:34.141Z,37.25
2019-05-09T10:52:59.933Z,37.01
2019-05-09T10:55:29.840Z,37.73
2019-05-09T10:58:02.268Z,36.94
2019-05-09T11:00:31.549Z,36.57
2019-05-09T11:03:01.709Z,36.40
2019-05-09T11:05:31.539Z,36.86
2019-05-09T11:08:01.403Z,35.60
2019-05-09T11:10:32.878Z,35.02
2019-05-09T11:13:02.949Z,34.26
2019-05-09T11:15:33.143Z,34.28
2019-05-09T11:18:03.003Z,33.54
2019-05-09T11:20:32.872Z,32.02
2019-05-09T11:23:02.706Z,32.85
2019-05-09T11:25:32.916Z,34.63
2019-05-09T11:28:11.155Z,36.07
2019-05-09T11:30:34.772Z,35.83
2019-05-09T11:33:04.916Z,34.20
2019-05-09T11:35:34.944Z,32.89
2019-05-09T11:38:05.188Z,34.65
2019-05-09T11:40:35.023Z,34.92
2019-05-09T11:43:04.906Z,34.47
2019-05-09T11:45:35.128Z,34.93
2019-05-09T11:48:07.949Z,33.81
2019-05-09T11:50:38.663Z,33.75
2019-05-09T11:53:08.961Z,33.18
2019-05-09T11:55:43.023Z,33.84
2019-05-09T11:58:10.665Z,33.88
2019-05-09T12:00:41.054Z,33.83
2019-05-09T12:03:11.204Z,34.31
2019-05-09T12:05:41.057Z,33.64
2019-05-09T12:08:10.906Z,34.24
2019-05-09T12:10:41.115Z,34.05
2019-05-09T12:13:11.204Z,33.57
2019-05-09T12:15:41.050Z,33.44
2019-05-09T12:18:11.645Z,33.71
2019-05-09T12:20:41.842Z,32.18
2019-05-09T12:23:11.985Z,32.23
2019-05-09T12:25:42.113Z,31.88
2019-05-09T12:28:11.987Z,31.71
2019-05-09T12:30:41.823Z,32.14
2019-05-09T12:33:11.664Z,31.92
2019-05-09T12:35:41.758Z,32.95
2019-05-09T12:38:11.638Z,33.13
2019-05-09T12:40:41.437Z,32.34
2019-05-09T12:43:11.340Z,32.11
2019-05-09T12:45:41.170Z,33.26
2019-05-09T12:48:15.377Z,31.46
2019-05-09T12:50:42.840Z,31.75
2019-05-09T12:53:12.696Z,32.81
2019-05-09T12:55:42.533Z,33.56
2019-05-09T12:58:27.871Z,34.08
2019-05-09T13:00:59.179Z,33.92
2019-05-09T13:03:29.855Z,34.21
2019-05-09T13:06:00.447Z,33.87
2019-05-09T13:08:30.279Z,34.51
2019-05-09T13:11:02.456Z,33.15
2019-05-09T13:13:32.390Z,33.28
2019-05-09T13:16:10.925Z,32.25
2019-05-09T13:19:03.078Z,32.25
2019-05-09T13:21:34.119Z,31.61
2019-05-09T13:24:04.082Z,30.24
2019-05-09T13:26:33.928Z,31.02
2019-05-09T13:29:03.779Z,31.28
2019-05-09T13:31:34.810Z,31.37
2019-05-09T13:34:07.723Z,30.63
2019-05-09T13:36:36.801Z,30.49
2019-05-09T13:39:10.517Z,29.42
2019-05-09T13:41:40.823Z,31.31
2019-05-09T13:44:13.896Z,31.23
2019-05-09T13:46:42.575Z,31.67
2019-05-09T13:49:15.548Z,33.21
2019-05-09T13:51:51.162Z,31.78
2019-05-09T13:54:18.244Z,31.20
2019-05-09T13:56:54.633Z,29.33
2019-05-09T13:59:19.471Z,28.92
2019-05-09T14:01:49.842Z,28.23
2019-05-09T14:04:20.160Z,27.30
2019-05-09T14:06:50.090Z,28.38
2019-05-09T14:09:20.220Z,28.09
2019-05-09T14:11:50.897Z,28.93
2019-05-09T14:14:20.828Z,29.50
2019-05-09T14:16:50.651Z,29.59
2019-05-09T14:19:31.581Z,30.65
2019-05-09T14:21:52.137Z,30.88
2019-05-09T14:24:22.254Z,30.03
2019-05-09T14:26:52.104Z,31.21
2019-05-09T14:29:21.938Z,29.40
2019-05-09T14:31:51.815Z,30.26
2019-05-09T14:34:25.097Z,30.21
2019-05-09T14:36:54.988Z,31.20
2019-05-09T14:39:24.873Z,29.86
2019-05-09T14:41:54.737Z,29.61
2019-05-09T14:44:24.860Z,29.29
2019-05-09T14:46:54.707Z,29.04
2019-05-09T14:49:39.420Z,28.93
2019-05-09T14:51:57.924Z,28.98
2019-05-09T14:54:28.938Z,29.40
2019-05-09T14:56:59.110Z,28.86
2019-05-09T14:59:28.964Z,28.93
2019-05-09T15:01:59.301Z,29.19
2019-05-09T15:04:29.571Z,29.70
2019-05-09T15:06:59.386Z,29.83
2019-05-09T15:09:29.251Z,29.92
2019-05-09T15:11:59.745Z,29.92
2019-05-09T15:14:29.860Z,30.10
2019-05-09T15:16:59.732Z,29.16
2019-05-09T15:19:29.587Z,29.68
2019-05-09T15:22:00.728Z,30.11
2019-05-09T15:24:31.202Z,30.85
2019-05-09T15:27:01.058Z,31.09
2019-05-09T15:29:30.884Z,31.51
2019-05-09T15:32:04.835Z,32.27
2019-05-09T15:34:32.408Z,32.58
2019-05-09T15:37:02.218Z,32.19
2019-05-09T15:39:32.137Z,32.25
2019-05-09T15:42:01.975Z,32.98
2019-05-09T15:44:32.223Z,33.04
2019-05-09T15:47:08.021Z,33.62
2019-05-09T15:49:38.475Z,33.38
2019-05-09T15:52:08.568Z,33.30
2019-05-09T15:54:38.757Z,34.20
2019-05-09T15:57:09.037Z,34.36
2019-05-09T15:59:39.148Z,34.83
2019-05-09T16:02:09.328Z,34.97
2019-05-09T16:04:40.183Z,35.10
2019-05-09T16:07:10.292Z,34.83
2019-05-09T16:09:40.690Z,35.48
2019-05-09T16:12:10.546Z,35.17
2019-05-09T16:14:41.316Z,35.94
2019-05-09T16:17:11.169Z,35.57
2019-05-09T16:19:41.366Z,35.70
2019-05-09T16:22:11.590Z,35.67
2019-05-09T16:24:41.473Z,35.55
2019-05-09T16:27:11.314Z,35.44
2019-05-09T16:29:41.144Z,35.83
2019-05-09T16:32:11.303Z,35.98
2019-05-09T16:34:41.207Z,36.20
2019-05-09T16:37:11.037Z,36.91
2019-05-09T16:39:40.940Z,36.86
2019-05-09T16:42:10.815Z,36.88
2019-05-09T16:44:41.899Z,36.74
2019-05-09T16:47:12.276Z,36.74
2019-05-09T16:49:42.135Z,36.80
2019-05-09T16:52:31.261Z,37.17
2019-05-09T16:55:11.248Z,37.34
2019-05-09T16:57:41.103Z,37.19
2019-05-09T17:00:13.046Z,38.24
2019-05-09T17:02:43.147Z,37.66
2019-05-09T17:05:13.060Z,38.23
2019-05-09T17:07:42.925Z,39.15
2019-05-09T17:10:12.942Z,39.34
2019-05-09T17:12:43.254Z,40.00
2019-05-09T17:15:18.888Z,40.15
2019-05-09T17:17:48.982Z,40.33
2019-05-09T17:20:22.095Z,41.21
2019-05-09T17:23:14.416Z,41.28
2019-05-09T17:25:40.183Z,41.54
2019-05-09T17:28:10.206Z,42.13
2019-05-09T17:30:40.308Z,42.27
2019-05-09T17:33:10.586Z,42.21
2019-05-09T17:35:40.956Z,42.31
2019-05-09T17:38:10.871Z,41.91
2019-05-09T17:40:40.707Z,42.31
2019-05-09T17:43:10.711Z,42.33
2019-05-09T17:45:42.235Z,42.82
2019-05-09T17:48:13.124Z,43.47
2019-05-09T17:50:43.330Z,43.55
2019-05-09T17:53:13.255Z,43.88
2019-05-09T17:55:43.104Z,43.95
2019-05-09T17:58:25.919Z,43.91
2019-05-09T18:00:44.582Z,44.92
2019-05-09T18:03:14.478Z,44.62
2019-05-09T18:05:44.504Z,44.80
2019-05-09T18:08:14.358Z,45.09
2019-05-09T18:10:44.214Z,45.56
2019-05-09T18:13:14.153Z,46.29
2019-05-09T18:15:44.046Z,46.15
2019-05-09T18:18:14.025Z,46.24
2019-05-09T18:20:44.237Z,46.43
2019-05-09T18:23:14.226Z,46.61
2019-05-09T18:25:44.687Z,46.51
2019-05-09T18:28:17.306Z,46.86
2019-05-09T18:30:47.819Z,46.97
2019-05-09T18:33:26.125Z,47.36
2019-05-09T18:35:57.604Z,47.82
2019-05-09T18:38:34.042Z,48.13
2019-05-09T18:41:07.159Z,48.50
2019-05-09T18:43:35.822Z,49.46
2019-05-09T18:46:08.230Z,49.75
2019-05-09T18:48:38.295Z,50.03
2019-05-09T18:51:08.407Z,51.06
2019-05-09T18:53:38.327Z,52.38
2019-05-09T18:56:08.160Z,52.47
2019-05-09T18:58:38.043Z,52.31
2019-05-09T19:01:07.979Z,52.55
2019-05-09T19:03:38.511Z,53.28
2019-05-09T19:06:08.374Z,54.18
2019-05-09T19:08:38.503Z,54.69
2019-05-09T19:11:08.496Z,54.71
2019-05-09T19:13:38.642Z,55.79
2019-05-09T19:16:29.178Z,55.75
2019-05-09T19:19:10.795Z,56.60
2019-05-09T19:21:47.356Z,57.00
2019-05-09T19:24:17.219Z,56.84
2019-05-09T19:26:47.354Z,56.84
2019-05-09T19:29:17.203Z,57.46
2019-05-09T19:31:47.386Z,56.49
2019-05-09T19:34:17.556Z,55.98
2019-05-09T19:36:47.423Z,54.97
2019-05-09T19:39:17.287Z,54.71
2019-05-09T19:41:47.180Z,55.48
2019-05-09T19:44:17.592Z,56.26
2019-05-09T19:46:47.474Z,56.43
2019-05-09T19:49:17.626Z,56.21
2019-05-09T19:51:47.753Z,56.52
2019-05-09T19:54:17.605Z,56.35
2019-05-09T19:56:47.515Z,56.52
2019-05-09T19:59:17.683Z,55.58
2019-05-09T20:01:47.923Z,55.01
2019-05-09T20:04:18.050Z,56.14
2019-05-09T20:06:48.167Z,57.28
2019-05-09T20:09:24.626Z,56.94
2019-05-09T20:12:01.349Z,56.82
2019-05-09T20:14:37.244Z,57.01
2019-05-09T20:17:07.121Z,56.47
2019-05-09T20:19:37.093Z,56.16
2019-05-09T20:22:07.721Z,56.75
2019-05-09T20:24:37.554Z,57.28
2019-05-09T20:27:07.810Z,57.57
2019-05-09T20:29:37.691Z,57.62
2019-05-09T20:32:07.545Z,57.81
2019-05-09T20:34:37.364Z,58.79
2019-05-09T20:37:07.201Z,59.14
2019-05-09T20:39:37.223Z,60.00
2019-05-09T20:42:07.279Z,60.03
2019-05-09T20:44:37.331Z,61.44
2019-05-09T20:47:07.621Z,62.86
2019-05-09T20:49:37.696Z,65.70
2019-05-09T20:52:07.735Z,65.13
2019-05-09T20:54:37.750Z,64.02
2019-05-09T20:57:08.012Z,63.58
2019-05-09T20:59:38.091Z,63.88
2019-05-09T21:02:08.132Z,63.80
2019-05-09T21:04:38.174Z,64.38
2019-05-09T21:07:08.212Z,64.33
2019-05-09T21:09:38.568Z,64.80
2019-05-09T21:12:11.067Z,65.78
2019-05-09T21:14:40.326Z,65.42
2019-05-09T21:17:10.375Z,65.23
2019-05-09T21:19:40.432Z,65.15
2019-05-09T21:22:11.317Z,65.50
2019-05-09T21:24:41.401Z,66.11
2019-05-09T21:27:11.557Z,66.21
2019-05-09T21:29:41.591Z,66.82
2019-05-09T21:32:11.628Z,67.31
2019-05-09T21:34:41.472Z,69.13
2019-05-09T21:37:13.943Z,70.00
2019-05-09T21:39:43.882Z,69.98
2019-05-09T21:42:13.728Z,69.66
2019-05-09T21:44:44.222Z,70.94
2019-05-09T21:47:14.299Z,71.25
2019-05-09T21:49:44.180Z,71.04
2019-05-09T21:52:14.361Z,71.11
2019-05-09T21:54:44.180Z,70.69
2019-05-09T21:57:14.410Z,70.61
2019-05-09T21:59:45.055Z,70.45
2019-05-09T22:02:15.233Z,71.20
2019-05-09T22:04:45.066Z,70.45
2019-05-09T22:07:15.398Z,70.63
2019-05-09T22:09:45.921Z,70.05
2019-05-09T22:12:35.012Z,69.99
2019-05-09T22:15:05.207Z,69.95
2019-05-09T22:17:39.077Z,69.71
2019-05-09T22:20:10.141Z,69.36
2019-05-09T22:22:40.067Z,69.80
2019-05-09T22:25:11.365Z,69.81
2019-05-09T22:27:41.303Z,70.43
2019-05-09T22:30:13.932Z,70.77
2019-05-09T22:32:44.262Z,70.16
2019-05-09T22:35:14.459Z,69.57
2019-05-09T22:37:44.609Z,69.15
2019-05-09T22:40:15.138Z,69.41
2019-05-09T22:42:45.144Z,69.34
2019-05-09T22:45:15.765Z,69.37
2019-05-09T22:47:45.607Z,69.30
2019-05-09T22:50:15.621Z,69.85
2019-05-09T22:52:45.839Z,69.97
2019-05-09T22:55:16.174Z,70.69
2019-05-09T22:57:47.266Z,70.78
2019-05-09T23:00:17.659Z,70.87
2019-05-09T23:02:47.521Z,71.25
2019-05-09T23:05:17.611Z,71.85
2019-05-09T23:07:47.978Z,72.25
2019-05-09T23:10:18.308Z,72.06
2019-05-09T23:12:48.185Z,71.96
2019-05-09T23:15:19.469Z,71.23
2019-05-09T23:17:49.372Z,71.08
2019-05-09T23:23:50.375Z,69.85
2019-05-09T23:26:21.863Z,69.61
2019-05-09T23:28:51.748Z,68.90
2019-05-09T23:31:30.085Z,68.80
2019-05-09T23:34:00.206Z,68.61
2019-05-09T23:36:30.351Z,68.45
2019-05-09T23:39:34.502Z,68.45
2019-05-09T23:42:04.714Z,69.03
2019-05-09T23:44:34.927Z,68.93
2019-05-09T23:47:04.774Z,68.65
2019-05-09T23:49:34.637Z,68.58
2019-05-09T23:52:04.884Z,68.86
2019-05-09T23:54:52.317Z,69.03
2019-05-09T23:57:39.712Z,68.81
